Time;durP1;ratioP1;P1;durP2;ratioP2;P2;SDS_P1;SDS_P2;PMS_P1;PMS_P2;Temp;Humidity;BMP_temperature;BMP_pressure;BME280_temperature;BME280_humidity;BME280_pressure;Samples;Min_cycle;Max_cycle;Signal;HPM_P1;HPM_P2
2022/11/23 00:01:20;;;;;;;4.53;2.20;;;10.30;58.60;;;;;;5113093;27;20869;-86
2022/11/23 00:03:48;;;;;;;2.00;1.70;;;10.40;58.00;;;;;;5092218;27;20504;-86
2022/11/23 00:06:16;;;;;;;2.90;1.93;;;10.50;57.70;;;;;;5113387;27;20453;-87
2022/11/23 00:08:44;;;;;;;4.80;2.30;;;10.50;57.40;;;;;;5102824;27;20478;-86
2022/11/23 00:11:11;;;;;;;5.13;4.40;;;10.60;57.20;;;;;;5094260;27;20512;-86
2022/11/23 00:13:39;;;;;;;6.73;3.20;;;10.60;57.00;;;;;;5081012;27;20922;-86
2022/11/23 00:16:06;;;;;;;8.57;3.40;;;10.60;56.60;;;;;;5111886;27;21280;-85
2022/11/23 00:18:35;;;;;;;9.50;3.70;;;10.60;56.90;;;;;;5091637;27;20509;-86
2022/11/23 00:21:07;;;;;;;5.50;2.47;;;10.60;56.50;;;;;;5112444;27;20451;-88
2022/11/23 00:23:34;;;;;;;2.20;2.00;;;10.60;56.20;;;;;;5110623;27;20438;-85
2022/11/23 00:26:02;;;;;;;3.80;2.03;;;10.20;56.50;;;;;;5094437;27;20545;-86
2022/11/23 00:28:29;;;;;;;4.80;2.47;;;9.80;57.80;;;;;;5112133;27;20565;-86
2022/11/23 00:30:57;;;;;;;3.60;1.77;;;9.80;58.40;;;;;;5094192;27;20455;-86
2022/11/23 00:33:24;;;;;;;2.23;1.90;;;9.60;59.00;;;;;;5095126;27;20506;-87
2022/11/23 00:36:00;;;;;;;4.70;2.00;;;9.40;59.30;;;;;;5111541;27;20487;-85
2022/11/23 00:38:27;;;;;;;3.30;2.17;;;9.10;60.00;;;;;;5113813;27;20476;-85
2022/11/23 00:40:59;;;;;;;3.90;2.23;;;8.90;60.80;;;;;;5112439;27;20805;-86
2022/11/23 00:43:27;;;;;;;3.83;2.07;;;9.00;60.40;;;;;;5113282;27;20443;-86
2022/11/23 00:46:05;;;;;;;3.80;2.30;;;9.10;60.30;;;;;;5112972;27;20451;-85
2022/11/23 00:48:32;;;;;;;4.10;1.70;;;9.30;59.70;;;;;;5092548;27;20472;-86
2022/11/23 00:51:02;;;;;;;2.47;2.10;;;9.50;59.30;;;;;;5113470;27;20438;-87
2022/11/23 00:53:29;;;;;;;4.43;2.83;;;9.60;58.50;;;;;;5093363;27;20470;-86
2022/11/23 00:55:57;;;;;;;2.27;1.97;;;9.60;58.50;;;;;;5111719;27;20534;-87
2022/11/23 00:58:25;;;;;;;4.00;1.77;;;9.70;58.30;;;;;;5078236;27;20483;-87
2022/11/23 01:01:00;;;;;;;7.03;1.97;;;9.70;58.10;;;;;;5112625;27;20460;-87
2022/11/23 01:03:30;;;;;;;1.80;1.70;;;9.70;58.20;;;;;;5111298;27;20505;-88
2022/11/23 01:06:05;;;;;;;2.40;1.70;;;9.80;58.00;;;;;;5095976;27;20453;-86
2022/11/23 01:08:32;;;;;;;2.90;2.00;;;9.80;57.60;;;;;;5110663;27;20462;-88
2022/11/23 01:11:00;;;;;;;1.90;1.60;;;9.80;57.80;;;;;;5110948;27;21017;-87
2022/11/23 01:13:28;;;;;;;4.63;2.23;;;9.70;58.30;;;;;;5093301;27;21044;-86
2022/11/23 01:15:55;;;;;;;5.90;2.03;;;9.70;58.50;;;;;;5110832;27;20442;-87
2022/11/23 01:18:23;;;;;;;4.90;2.53;;;9.50;59.10;;;;;;5088518;27;20511;-86
2022/11/23 01:20:50;;;;;;;2.60;2.37;;;9.50;59.10;;;;;;5101738;27;20454;-86
2022/11/23 01:23:19;;;;;;;2.30;2.10;;;9.60;58.60;;;;;;5102407;27;20450;-87
2022/11/23 01:25:46;;;;;;;3.80;2.33;;;9.50;59.30;;;;;;5096695;27;20442;-86
2022/11/23 01:28:14;;;;;;;6.00;2.50;;;9.50;59.00;;;;;;5078945;27;20546;-86
2022/11/23 01:30:41;;;;;;;4.37;2.57;;;9.30;59.60;;;;;;5095610;27;20542;-88
2022/11/23 01:33:08;;;;;;;2.87;2.10;;;9.40;59.20;;;;;;5112212;27;20482;-87
2022/11/23 01:35:35;;;;;;;7.73;2.90;;;9.50;58.50;;;;;;5066741;27;20471;-87
2022/11/23 01:38:02;;;;;;;7.53;2.53;;;9.50;58.30;;;;;;5111395;27;20498;-86
2022/11/23 01:40:30;;;;;;;5.00;3.00;;;9.60;57.90;;;;;;5110039;27;20958;-85
2022/11/23 01:42:59;;;;;;;4.63;2.53;;;9.70;57.80;;;;;;5112444;27;20442;-86
2022/11/23 01:45:34;;;;;;;2.73;2.43;;;9.70;57.50;;;;;;5092420;27;20566;-87
2022/11/23 01:48:03;;;;;;;5.30;2.30;;;9.60;57.70;;;;;;5093650;28;20543;-87
2022/11/23 01:50:30;;;;;;;3.30;1.80;;;9.60;57.90;;;;;;5113476;27;20496;-85
2022/11/23 01:52:58;;;;;;;3.27;2.80;;;9.30;58.20;;;;;;5110161;27;20476;-88
2022/11/23 01:55:27;;;;;;;3.20;2.87;;;9.20;58.30;;;;;;5101496;27;20458;-87
2022/11/23 01:57:56;;;;;;;5.17;2.30;;;9.00;59.10;;;;;;5111700;27;20997;-86
2022/11/23 02:00:23;;;;;;;5.37;2.40;;;8.90;59.30;;;;;;5093606;27;20799;-84
2022/11/23 02:02:55;;;;;;;5.00;1.90;;;8.90;60.30;;;;;;5092449;27;20928;-86
2022/11/23 02:05:28;;;;;;;2.03;1.70;;;8.90;60.40;;;;;;5094673;27;20480;-86
2022/11/23 02:07:56;;;;;;;4.87;2.30;;;9.10;60.50;;;;;;5112788;27;20462;-86
2022/11/23 02:10:23;;;;;;;6.80;2.63;;;9.20;60.80;;;;;;5075407;27;20446;-85
2022/11/23 02:12:51;;;;;;;4.80;2.03;;;9.30;60.50;;;;;;5093707;27;20470;-87
2022/11/23 02:15:19;;;;;;;2.43;1.90;;;9.40;60.10;;;;;;5111140;27;20474;-86
2022/11/23 02:17:48;;;;;;;4.23;2.47;;;9.50;60.00;;;;;;5079366;27;20579;-88
2022/11/23 02:20:18;;;;;;;3.70;3.40;;;9.50;60.40;;;;;;5080065;28;20450;-87
2022/11/23 02:22:52;;;;;;;7.60;2.13;;;9.60;60.50;;;;;;5092057;27;20502;-86
2022/11/23 02:25:28;;;;;;;3.97;2.40;;;9.70;59.90;;;;;;5111304;27;20549;-87
2022/11/23 02:27:57;;;;;;;6.03;2.13;;;9.60;59.60;;;;;;5093334;27;21058;-88
2022/11/23 02:30:28;;;;;;;5.83;2.57;;;9.70;59.80;;;;;;5091402;27;20562;-89
2022/11/23 02:32:56;;;;;;;2.13;1.90;;;9.60;59.90;;;;;;5085753;27;20495;-88
2022/11/23 02:35:24;;;;;;;2.50;1.97;;;9.60;59.80;;;;;;5079073;27;20446;-85
2022/11/23 02:37:52;;;;;;;4.90;1.73;;;9.60;60.30;;;;;;5110704;27;20477;-87
2022/11/23 02:40:27;;;;;;;3.37;2.53;;;9.70;60.20;;;;;;5091765;28;20529;-87
2022/11/23 02:42:55;;;;;;;10.10;3.50;;;9.30;60.80;;;;;;5109818;27;20694;-86
2022/11/23 02:45:31;;;;;;;4.73;2.50;;;9.10;61.80;;;;;;5112332;27;20461;-86
2022/11/23 02:48:01;;;;;;;7.40;2.73;;;9.20;61.70;;;;;;5097079;27;20474;-86
2022/11/23 02:50:28;;;;;;;4.90;2.33;;;9.30;61.80;;;;;;5113793;27;20542;-86
2022/11/23 02:52:55;;;;;;;3.30;2.73;;;9.30;61.90;;;;;;5097184;27;20554;-87
2022/11/23 02:55:22;;;;;;;3.90;3.27;;;9.40;61.70;;;;;;5099081;27;20462;-88
2022/11/23 02:57:50;;;;;;;5.40;3.20;;;9.00;62.00;;;;;;5114871;27;20461;-87
2022/11/23 03:00:17;;;;;;;6.90;3.17;;;8.80;63.30;;;;;;5097443;27;20450;-87
2022/11/23 03:02:46;;;;;;;8.07;3.93;;;8.80;63.90;;;;;;5114489;27;20518;-87
2022/11/23 03:05:13;;;;;;;8.83;4.60;;;9.10;63.00;;;;;;5113772;27;20445;-87
2022/11/23 03:07:40;;;;;;;6.83;4.60;;;9.50;61.80;;;;;;5116820;27;20564;-88
2022/11/23 03:10:08;;;;;;;17.90;7.70;;;9.60;60.90;;;;;;5116817;27;20444;-87
2022/11/23 03:12:36;;;;;;;12.97;7.37;;;9.60;61.00;;;;;;5113756;27;20463;-87
2022/11/23 03:15:03;;;;;;;7.27;5.07;;;9.50;61.60;;;;;;5095469;27;20474;-88
2022/11/23 03:17:31;;;;;;;20.50;5.40;;;9.50;61.50;;;;;;5098699;27;20524;-86
2022/11/23 03:20:00;;;;;;;6.20;3.00;;;9.70;61.20;;;;;;5092070;27;20454;-86
2022/11/23 03:22:28;;;;;;;7.23;3.50;;;9.30;61.80;;;;;;5076729;27;20458;-87
2022/11/23 03:24:57;;;;;;;5.00;3.23;;;9.40;62.40;;;;;;5115007;27;20464;-86
2022/11/23 03:27:25;;;;;;;7.53;1.90;;;9.40;62.20;;;;;;5102055;27;20569;-86
2022/11/23 03:29:53;;;;;;;3.20;2.57;;;9.50;61.90;;;;;;5095484;27;20458;-87
2022/11/23 03:32:21;;;;;;;2.97;2.40;;;9.70;61.60;;;;;;5096943;27;20459;-87
2022/11/23 03:34:51;;;;;;;3.30;2.00;;;9.80;61.00;;;;;;5094952;27;20461;-86
2022/11/23 03:37:23;;;;;;;2.30;2.10;;;9.90;60.70;;;;;;5093379;27;20461;-86
2022/11/23 03:39:50;;;;;;;2.97;1.70;;;9.80;60.60;;;;;;5113865;27;20449;-87
2022/11/23 03:42:40;;;;;;;4.50;1.87;;;9.80;60.70;;;;;;5114405;27;20542;-86
2022/11/23 03:45:09;;;;;;;2.40;1.60;;;10.00;59.40;;;;;;5097636;27;20478;-86
2022/11/23 03:47:36;;;;;;;1.93;1.57;;;10.00;59.30;;;;;;5103240;27;20549;-86
2022/11/23 03:50:04;;;;;;;2.63;1.50;;;10.10;59.20;;;;;;5112947;27;20450;-86
2022/11/23 03:52:34;;;;;;;6.00;1.80;;;10.20;59.10;;;;;;5093130;27;20477;-86
2022/11/23 03:55:01;;;;;;;3.67;1.43;;;10.30;58.90;;;;;;5110514;27;20471;-87
2022/11/23 03:57:28;;;;;;;2.43;1.53;;;10.00;58.80;;;;;;5104010;27;20493;-87
2022/11/23 03:59:55;;;;;;;3.73;1.40;;;10.00;58.80;;;;;;5104060;27;20457;-86
2022/11/23 04:02:23;;;;;;;3.60;2.07;;;9.80;60.30;;;;;;5098988;27;20465;-86
2022/11/23 04:05:01;;;;;;;3.40;1.80;;;9.70;60.50;;;;;;5104836;27;20478;-86
2022/11/23 04:07:50;;;;;;;2.80;2.50;;;9.70;61.10;;;;;;5114312;27;20477;-88
2022/11/23 04:10:18;;;;;;;4.03;3.30;;;9.80;61.20;;;;;;5087067;27;20462;-87
2022/11/23 04:12:59;;;;;;;5.50;3.67;;;9.70;61.00;;;;;;5072932;27;20817;-86
2022/11/23 04:15:26;;;;;;;8.73;3.33;;;9.90;61.00;;;;;;5114078;27;20475;-90
2022/11/23 04:17:54;;;;;;;4.73;3.83;;;9.90;60.90;;;;;;5115680;27;20540;-86
2022/11/23 04:20:21;;;;;;;5.73;3.17;;;10.10;59.40;;;;;;5113289;27;20954;-86
2022/11/23 04:22:50;;;;;;;4.90;3.17;;;10.20;59.20;;;;;;5094963;27;20518;-84
2022/11/23 04:25:17;;;;;;;4.03;2.73;;;10.30;59.10;;;;;;5079976;27;20457;-87
2022/11/23 04:27:46;;;;;;;5.37;3.17;;;10.40;58.80;;;;;;5094941;27;20747;-86
2022/11/23 04:30:16;;;;;;;3.20;2.90;;;10.40;58.60;;;;;;5093088;27;21238;-86
2022/11/23 04:32:44;;;;;;;5.37;3.00;;;10.50;58.40;;;;;;5086099;27;20451;-86
2022/11/23 04:35:12;;;;;;;5.23;3.10;;;10.30;58.60;;;;;;5075804;28;20479;-86
2022/11/23 04:37:41;;;;;;;5.93;3.93;;;10.30;58.90;;;;;;5086051;27;20467;-88
2022/11/23 04:40:12;;;;;;;4.33;3.53;;;10.40;58.60;;;;;;5079619;27;20443;-86
2022/11/23 04:42:43;;;;;;;20.20;4.00;;;10.40;58.20;;;;;;5102619;27;20454;-86
2022/11/23 04:45:11;;;;;;;5.17;3.80;;;10.40;58.10;;;;;;5092331;27;20450;-86
2022/11/23 04:47:38;;;;;;;4.90;3.70;;;10.10;58.90;;;;;;5094931;27;20537;-87
2022/11/23 04:50:11;;;;;;;4.03;3.20;;;10.10;59.40;;;;;;5093771;27;20458;-86
2022/11/23 04:52:38;;;;;;;4.93;2.83;;;10.20;59.10;;;;;;5110749;27;20445;-86
2022/11/23 04:55:12;;;;;;;3.60;2.97;;;10.30;58.50;;;;;;5095825;28;20466;-86
2022/11/23 04:57:47;;;;;;;3.03;2.83;;;10.30;58.40;;;;;;5101144;27;20473;-86
2022/11/23 05:00:16;;;;;;;4.33;2.90;;;10.20;59.20;;;;;;5093175;27;20455;-86
2022/11/23 05:02:43;;;;;;;5.13;2.80;;;10.10;59.40;;;;;;5098084;27;20459;-86
2022/11/23 05:05:19;;;;;;;4.53;3.93;;;10.30;59.10;;;;;;5097413;27;20441;-86
2022/11/23 05:07:46;;;;;;;5.60;3.10;;;10.30;58.80;;;;;;5096278;27;21014;-86
2022/11/23 05:10:14;;;;;;;6.53;3.37;;;10.20;58.90;;;;;;5112548;27;20512;-86
2022/11/23 05:12:42;;;;;;;5.20;3.17;;;10.10;59.50;;;;;;5077719;27;20463;-87
2022/11/23 05:15:13;;;;;;;9.77;5.50;;;10.30;59.40;;;;;;5090124;27;20477;-86
2022/11/23 05:17:40;;;;;;;7.80;5.20;;;10.40;59.10;;;;;;5094454;27;20476;-86
2022/11/23 05:20:14;;;;;;;6.60;3.70;;;10.40;58.90;;;;;;5082933;28;20447;-87
2022/11/23 05:22:46;;;;;;;4.90;3.30;;;10.40;58.70;;;;;;5078670;27;20497;-85
2022/11/23 05:25:18;;;;;;;4.07;3.67;;;10.40;58.70;;;;;;5095027;27;20439;-86
2022/11/23 05:27:49;;;;;;;2.80;2.50;;;10.40;58.70;;;;;;5093139;27;20472;-86
2022/11/23 05:30:17;;;;;;;10.30;2.93;;;10.50;58.80;;;;;;5093036;28;20508;-88
2022/11/23 05:32:46;;;;;;;4.00;3.17;;;10.50;58.70;;;;;;5093241;27;20459;-86
2022/11/23 05:35:13;;;;;;;3.77;2.43;;;10.30;58.60;;;;;;5095780;27;21228;-86
2022/11/23 05:37:41;;;;;;;5.40;3.40;;;10.40;59.00;;;;;;5097351;27;20470;-86
2022/11/23 05:40:12;;;;;;;11.30;4.70;;;10.50;59.00;;;;;;5092825;27;20952;-86
2022/11/23 05:42:40;;;;;;;3.77;3.40;;;10.50;58.80;;;;;;5095224;27;20458;-86
2022/11/23 05:45:16;;;;;;;6.10;3.67;;;10.40;59.10;;;;;;5087683;28;21044;-87
2022/11/23 05:47:50;;;;;;;6.53;3.73;;;10.50;59.10;;;;;;5092628;27;20474;-88
2022/11/23 05:50:23;;;;;;;6.57;4.80;;;10.60;58.90;;;;;;5093338;28;20469;-87
2022/11/23 05:53:10;;;;;;;7.33;4.30;;;10.60;58.50;;;;;;5089634;28;20447;-86
2022/11/23 05:55:38;;;;;;;6.67;4.60;;;10.50;58.40;;;;;;5095633;27;20846;-88
2022/11/23 05:58:06;;;;;;;7.00;4.50;;;10.50;58.40;;;;;;5088592;28;20481;-87
2022/11/23 06:00:35;;;;;;;9.60;4.77;;;10.50;58.30;;;;;;5091095;27;21015;-88
2022/11/23 06:03:04;;;;;;;9.30;5.60;;;10.50;58.40;;;;;;5077604;28;20468;-86
2022/11/23 06:05:32;;;;;;;13.70;8.83;;;10.50;58.90;;;;;;5098876;27;20537;-86
2022/11/23 06:07:59;;;;;;;12.83;7.10;;;10.50;59.30;;;;;;5065959;28;21200;-86
2022/11/23 06:10:28;;;;;;;10.07;7.23;;;10.50;59.10;;;;;;5093450;27;20446;-87
2022/11/23 06:13:02;;;;;;;12.10;8.33;;;10.60;58.90;;;;;;5092260;28;20466;-86
2022/11/23 06:15:31;;;;;;;21.90;8.70;;;10.60;58.70;;;;;;5098891;27;21201;-86
2022/11/23 06:18:01;;;;;;;15.60;8.10;;;10.60;58.70;;;;;;5090381;28;20486;-87
2022/11/23 06:20:36;;;;;;;12.40;7.43;;;10.60;58.80;;;;;;5096393;27;20472;-87
2022/11/23 06:23:04;;;;;;;19.63;8.87;;;10.60;59.00;;;;;;5098712;27;20493;-86
2022/11/23 06:25:31;;;;;;;13.70;7.40;;;10.60;59.00;;;;;;5110810;27;21212;-87
2022/11/23 06:28:07;;;;;;;26.87;13.20;;;10.60;58.80;;;;;;5096852;27;20473;-87
2022/11/23 06:30:42;;;;;;;20.50;10.77;;;10.70;58.90;;;;;;5090476;27;20454;-87
2022/11/23 06:33:09;;;;;;;17.87;10.17;;;10.70;59.20;;;;;;5110951;27;20458;-86
2022/11/23 06:35:52;;;;;;;22.57;14.67;;;10.60;59.10;;;;;;5101671;27;20458;-87
2022/11/23 06:38:19;;;;;;;24.07;16.40;;;10.60;59.20;;;;;;5094083;27;20490;-87
2022/11/23 06:40:48;;;;;;;29.30;15.70;;;10.40;59.60;;;;;;5091450;27;21171;-88
2022/11/23 06:43:15;;;;;;;12.43;9.40;;;10.50;59.50;;;;;;5095193;27;20497;-87
2022/11/23 06:45:45;;;;;;;15.10;8.27;;;10.60;59.20;;;;;;5092813;27;20438;-86
2022/11/23 06:48:15;;;;;;;13.90;10.23;;;10.60;59.10;;;;;;5106535;27;20617;-87
2022/11/23 06:50:46;;;;;;;18.60;10.73;;;10.60;59.20;;;;;;5093058;27;20447;-87
2022/11/23 06:53:14;;;;;;;11.53;9.87;;;10.60;59.20;;;;;;5089541;27;20462;-87
2022/11/23 06:55:46;;;;;;;16.47;12.90;;;10.40;59.90;;;;;;5088761;27;20458;-87
2022/11/23 06:58:16;;;;;;;22.70;12.90;;;10.40;60.20;;;;;;5090090;27;20569;-87
2022/11/23 07:00:46;;;;;;;35.40;18.90;;;10.50;59.80;;;;;;5093262;27;20559;-87
2022/11/23 07:03:19;;;;;;;42.70;23.47;;;10.50;59.70;;;;;;5096562;27;20466;-87
2022/11/23 07:05:47;;;;;;;34.20;20.30;;;10.50;59.80;;;;;;5101268;27;20503;-86
2022/11/23 07:08:14;;;;;;;29.97;17.53;;;10.60;59.70;;;;;;5102580;27;20914;-87
2022/11/23 07:10:41;;;;;;;35.40;16.40;;;10.70;59.40;;;;;;5096430;27;20451;-86
2022/11/23 07:13:12;;;;;;;22.33;10.77;;;10.80;59.30;;;;;;5095055;27;20457;-87
2022/11/23 07:15:39;;;;;;;10.30;6.30;;;10.80;59.00;;;;;;5112578;27;20479;-87
2022/11/23 07:18:09;;;;;;;5.40;4.47;;;10.60;58.50;;;;;;5091912;27;20563;-86
2022/11/23 07:20:38;;;;;;;6.00;4.30;;;10.50;58.90;;;;;;5096192;27;20537;-87
2022/11/23 07:23:08;;;;;;;3.80;2.87;;;10.20;59.10;;;;;;5092109;27;20565;-87
2022/11/23 07:25:36;;;;;;;6.50;2.80;;;10.20;59.60;;;;;;5105881;27;20441;-86
2022/11/23 07:28:05;;;;;;;12.77;8.40;;;10.50;59.50;;;;;;5111987;27;20462;-85
2022/11/23 07:30:34;;;;;;;20.03;11.03;;;10.60;59.60;;;;;;5096463;27;20454;-86
2022/11/23 07:33:02;;;;;;;10.70;7.60;;;10.50;59.70;;;;;;5096052;27;20484;-87
2022/11/23 07:35:32;;;;;;;26.90;13.07;;;10.60;59.90;;;;;;5094354;27;21039;-87
2022/11/23 07:37:59;;;;;;;20.93;11.23;;;10.60;59.80;;;;;;5104125;27;20482;-86
2022/11/23 07:40:27;;;;;;;14.50;9.67;;;10.40;60.20;;;;;;5096858;27;20511;-85
2022/11/23 07:42:58;;;;;;;16.33;10.30;;;10.20;61.20;;;;;;5112393;27;20473;-86
2022/11/23 07:45:25;;;;;;;16.63;9.93;;;10.40;61.10;;;;;;5091905;28;20461;-87
2022/11/23 07:47:59;;;;;;;13.83;8.50;;;10.40;61.30;;;;;;5095110;27;20479;-87
2022/11/23 07:50:27;;;;;;;20.03;8.97;;;10.30;60.90;;;;;;5094685;27;20445;-86
2022/11/23 07:52:55;;;;;;;12.43;8.07;;;10.30;61.50;;;;;;5108733;27;20532;-86
2022/11/23 07:55:23;;;;;;;9.83;8.13;;;10.20;61.50;;;;;;5109672;27;20474;-87
2022/11/23 07:57:53;;;;;;;11.03;9.03;;;10.30;61.30;;;;;;5088920;27;20479;-87
2022/11/23 08:00:20;;;;;;;15.13;7.77;;;10.10;61.90;;;;;;5094261;27;20504;-86
2022/11/23 08:02:48;;;;;;;12.23;8.50;;;10.30;61.80;;;;;;5107852;27;20462;-87
2022/11/23 08:05:15;;;;;;;14.57;10.10;;;10.50;61.10;;;;;;5109936;27;20436;-87
2022/11/23 08:07:43;;;;;;;19.37;9.70;;;10.70;60.70;;;;;;5108962;27;20458;-87
2022/11/23 08:10:12;;;;;;;18.50;10.53;;;10.60;60.50;;;;;;5107998;27;20465;-87
2022/11/23 08:12:39;;;;;;;12.70;8.30;;;10.60;61.60;;;;;;5110689;27;20821;-87
2022/11/23 08:15:07;;;;;;;10.00;7.63;;;10.30;61.30;;;;;;5091167;27;20489;-87
2022/11/23 08:17:34;;;;;;;13.80;9.60;;;10.00;62.80;;;;;;5108816;27;20477;-86
2022/11/23 08:20:01;;;;;;;13.80;9.30;;;10.20;62.80;;;;;;5100123;27;20458;-86
2022/11/23 08:22:28;;;;;;;16.97;10.50;;;10.30;62.20;;;;;;5107477;27;20447;-87
2022/11/23 08:24:55;;;;;;;15.20;10.20;;;10.50;61.60;;;;;;5090803;27;20446;-86
2022/11/23 08:27:24;;;;;;;18.00;11.57;;;10.70;61.30;;;;;;5110343;27;20476;-87
2022/11/23 08:29:51;;;;;;;13.87;10.97;;;10.80;61.10;;;;;;5108258;27;20445;-87
2022/11/23 08:32:18;;;;;;;11.20;8.30;;;11.00;60.60;;;;;;5108800;27;20443;-87
2022/11/23 08:34:45;;;;;;;11.53;8.03;;;11.10;60.10;;;;;;5108260;27;20462;-86
2022/11/23 08:37:11;;;;;;;12.60;6.67;;;11.10;59.80;;;;;;5110759;27;20456;-86
2022/11/23 08:39:38;;;;;;;12.53;7.00;;;10.90;59.80;;;;;;5107941;27;20443;-85
2022/11/23 08:42:06;;;;;;;9.00;6.00;;;10.90;60.60;;;;;;5109709;27;20472;-86
2022/11/23 08:44:34;;;;;;;10.90;6.87;;;10.90;60.40;;;;;;5106052;27;20463;-87
2022/11/23 08:47:01;;;;;;;9.50;6.70;;;11.10;59.90;;;;;;5109740;27;20480;-87
2022/11/23 08:49:32;;;;;;;9.83;7.50;;;11.00;59.80;;;;;;5109712;27;20434;-87
2022/11/23 08:51:59;;;;;;;9.27;6.17;;;10.70;60.30;;;;;;5110022;27;20774;-87
2022/11/23 08:54:26;;;;;;;12.83;8.07;;;10.80;61.00;;;;;;5110258;27;20656;-87
2022/11/23 08:56:53;;;;;;;12.03;7.93;;;11.00;60.50;;;;;;5109830;27;20470;-85
2022/11/23 08:59:20;;;;;;;8.00;5.87;;;11.10;60.00;;;;;;5109320;27;20530;-87
2022/11/23 09:01:48;;;;;;;9.60;5.53;;;11.10;59.80;;;;;;5090611;27;20550;-87
2022/11/23 09:04:15;;;;;;;7.33;4.80;;;10.90;60.00;;;;;;5107292;27;20439;-86
2022/11/23 09:06:42;;;;;;;16.47;5.77;;;10.90;60.10;;;;;;5108454;27;20430;-87
2022/11/23 09:09:09;;;;;;;8.47;4.60;;;10.80;60.20;;;;;;5088218;27;21084;-86
2022/11/23 09:11:37;;;;;;;7.10;3.77;;;10.70;59.90;;;;;;5108682;27;20986;-86
2022/11/23 09:14:04;;;;;;;8.67;4.20;;;10.50;60.50;;;;;;5107172;27;20963;-86
2022/11/23 09:16:31;;;;;;;7.97;5.60;;;10.70;60.30;;;;;;5088409;27;20548;-87
2022/11/23 09:18:59;;;;;;;9.77;5.10;;;10.90;59.80;;;;;;5105843;27;20523;-87
2022/11/23 09:21:29;;;;;;;9.57;5.07;;;10.80;59.90;;;;;;5108078;27;20922;-87
2022/11/23 09:23:57;;;;;;;10.53;5.00;;;10.80;59.90;;;;;;5106929;27;20453;-88
2022/11/23 09:26:25;;;;;;;16.13;6.93;;;10.90;60.00;;;;;;5108494;27;21043;-86
2022/11/23 09:28:52;;;;;;;13.70;6.43;;;11.10;60.00;;;;;;5088585;27;21424;-87
2022/11/23 09:31:19;;;;;;;18.50;7.17;;;11.30;59.50;;;;;;5090909;28;21077;-86
2022/11/23 09:33:46;;;;;;;12.47;6.40;;;11.50;59.20;;;;;;5109836;27;20496;-86
2022/11/23 09:36:15;;;;;;;13.93;8.73;;;11.50;58.60;;;;;;5106989;27;20490;-86
2022/11/23 09:38:42;;;;;;;12.30;7.90;;;11.30;59.10;;;;;;5107480;27;20462;-87
2022/11/23 09:41:23;;;;;;;18.63;14.63;;;11.20;59.30;;;;;;5107333;27;20485;-87
2022/11/23 09:44:01;;;;;;;7.93;5.60;;;11.30;59.60;;;;;;5108304;27;20450;-87
2022/11/23 09:46:37;;;;;;;7.73;4.80;;;11.30;59.00;;;;;;5107754;27;20430;-86
2022/11/23 09:49:13;;;;;;;6.67;4.43;;;11.20;59.20;;;;;;5107627;27;20461;-87
2022/11/23 09:51:44;;;;;;;15.20;6.00;;;11.40;58.80;;;;;;5091242;27;20530;-87
2022/11/23 09:54:26;;;;;;;10.80;6.10;;;11.30;58.30;;;;;;5091107;28;20826;-84
2022/11/23 09:56:55;;;;;;;8.03;6.53;;;11.10;59.10;;;;;;5094762;27;20454;-86
2022/11/23 09:59:36;;;;;;;9.50;6.70;;;11.20;58.60;;;;;;5096891;27;20486;-86
2022/11/23 10:02:03;;;;;;;10.90;6.60;;;11.30;58.60;;;;;;5116141;27;20469;-87
2022/11/23 10:04:34;;;;;;;13.10;8.50;;;11.70;58.30;;;;;;5096128;27;20799;-86
2022/11/23 10:07:22;;;;;;;23.00;13.47;;;11.70;58.20;;;;;;5117242;27;20446;-86
2022/11/23 10:09:56;;;;;;;23.63;12.63;;;11.60;58.80;;;;;;5111771;27;20502;-87
2022/11/23 10:12:34;;;;;;;22.87;12.97;;;11.50;59.30;;;;;;5098928;27;20446;-86
2022/11/23 10:15:09;;;;;;;22.33;12.90;;;11.50;59.40;;;;;;5114759;27;20446;-86
2022/11/23 10:17:51;;;;;;;17.97;12.53;;;11.30;59.30;;;;;;5113150;27;20474;-86
2022/11/23 10:20:57;;;;;;;25.17;12.67;;;11.40;59.60;;;;;;5115583;27;20502;-86
2022/11/23 10:23:46;;;;;;;23.27;11.87;;;11.60;59.10;;;;;;5105304;27;20826;-87
2022/11/23 10:26:16;;;;;;;19.90;12.50;;;11.60;59.30;;;;;;5116608;27;20537;-86
2022/11/23 10:28:44;;;;;;;60.30;22.87;;;11.80;59.20;;;;;;5103726;27;20466;-86
2022/11/23 10:31:14;;;;;;;29.17;13.50;;;11.90;58.90;;;;;;5114457;27;20872;-86
2022/11/23 10:33:52;;;;;;;15.13;10.77;;;11.70;58.90;;;;;;5114125;27;20499;-86
2022/11/23 10:36:20;;;;;;;17.23;9.60;;;11.90;58.90;;;;;;5113944;27;20469;-86
2022/11/23 10:38:50;;;;;;;15.90;9.23;;;11.90;59.20;;;;;;5114287;27;20466;-86
2022/11/23 10:41:17;;;;;;;28.93;17.23;;;12.10;58.80;;;;;;5114426;27;20904;-86
2022/11/23 10:43:50;;;;;;;24.80;13.80;;;12.20;58.80;;;;;;5112509;27;20515;-87
2022/11/23 10:46:31;;;;;;;20.90;10.90;;;12.20;59.00;;;;;;5114139;27;20488;-86
2022/11/23 10:49:16;;;;;;;22.63;12.30;;;12.20;58.90;;;;;;5116313;27;20516;-87
2022/11/23 10:51:52;;;;;;;16.60;11.13;;;12.30;58.90;;;;;;5113525;27;20449;-86
2022/11/23 10:54:27;;;;;;;21.77;11.80;;;12.40;58.80;;;;;;5115705;27;20807;-87
2022/11/23 10:56:56;;;;;;;15.10;8.47;;;12.40;58.30;;;;;;5115946;27;21000;-87
2022/11/23 10:59:34;;;;;;;14.33;8.87;;;12.40;58.40;;;;;;5114727;27;20945;-88
2022/11/23 11:02:13;;;;;;;15.63;6.40;;;12.30;59.00;;;;;;5113005;27;20805;-87
2022/11/23 11:04:40;;;;;;;12.00;6.20;;;12.30;58.80;;;;;;5113727;27;20451;-85
2022/11/23 11:07:22;;;;;;;13.13;6.63;;;12.40;58.90;;;;;;5116293;27;20446;-87
2022/11/23 11:09:53;;;;;;;7.33;4.10;;;12.60;58.60;;;;;;5094150;27;20533;-86
2022/11/23 11:12:21;;;;;;;5.30;4.00;;;12.80;58.10;;;;;;5095074;28;20441;-86
2022/11/23 11:15:02;;;;;;;5.93;3.93;;;12.80;57.60;;;;;;5110667;27;20446;-86
2022/11/23 11:17:32;;;;;;;8.80;4.60;;;12.70;57.80;;;;;;5113272;27;20580;-87
2022/11/23 11:19:59;;;;;;;6.03;4.23;;;12.70;57.60;;;;;;5114118;27;20443;-88
2022/11/23 11:22:34;;;;;;;8.10;3.80;;;12.80;57.80;;;;;;5113124;27;20439;-87
2022/11/23 11:25:05;;;;;;;5.40;3.90;;;13.00;57.30;;;;;;5092012;28;20461;-86
2022/11/23 11:27:32;;;;;;;4.87;4.00;;;13.00;56.70;;;;;;5111169;27;20467;-86
2022/11/23 11:30:06;;;;;;;9.93;5.37;;;12.90;57.00;;;;;;5113138;27;20449;-87
2022/11/23 11:32:45;;;;;;;7.27;3.57;;;13.00;57.10;;;;;;5113564;27;20446;-87
2022/11/23 11:35:16;;;;;;;11.20;4.10;;;13.00;56.90;;;;;;5111929;27;20938;-87
2022/11/23 11:37:45;;;;;;;9.40;4.83;;;13.10;57.00;;;;;;5111837;27;20482;-87
2022/11/23 11:40:23;;;;;;;12.00;5.00;;;13.30;57.00;;;;;;5112654;27;20584;-86
2022/11/23 11:42:54;;;;;;;8.00;3.93;;;13.00;56.60;;;;;;5112187;27;20474;-87
2022/11/23 11:45:25;;;;;;;5.03;3.30;;;13.00;57.30;;;;;;5111226;27;20499;-86
2022/11/23 11:47:59;;;;;;;4.60;3.57;;;12.90;57.40;;;;;;5112689;27;20466;-87
2022/11/23 11:50:32;;;;;;;7.60;3.77;;;13.10;57.30;;;;;;5113457;27;20524;-86
2022/11/23 11:53:04;;;;;;;7.30;3.40;;;13.20;56.50;;;;;;5113471;27;20437;-86
2022/11/23 11:55:46;;;;;;;5.27;2.70;;;13.30;56.50;;;;;;5107344;27;20537;-86
2022/11/23 11:58:16;;;;;;;20.00;3.73;;;13.70;57.10;;;;;;5111163;27;20457;-87
2022/11/23 12:00:46;;;;;;;8.43;4.77;;;13.90;55.30;;;;;;5110264;27;20541;-86
2022/11/23 12:03:23;;;;;;;10.30;3.60;;;14.20;54.80;;;;;;5108028;27;20491;-87
2022/11/23 12:05:52;;;;;;;12.27;2.90;;;14.40;53.70;;;;;;5110237;27;20437;-86
2022/11/23 12:08:24;;;;;;;5.40;2.60;;;14.40;51.10;;;;;;5109352;27;20511;-87
2022/11/23 12:10:56;;;;;;;4.10;2.47;;;14.50;52.80;;;;;;5108477;27;20967;-87
2022/11/23 12:13:28;;;;;;;4.37;2.00;;;14.70;52.90;;;;;;5092344;27;20478;-87
2022/11/23 12:16:06;;;;;;;3.00;2.37;;;15.00;52.00;;;;;;5103439;27;20967;-86
2022/11/23 12:18:45;;;;;;;5.33;3.13;;;15.30;51.70;;;;;;5110750;27;20470;-85
2022/11/23 12:21:33;;;;;;;8.50;4.20;;;15.70;51.70;;;;;;5112002;27;20784;-87
2022/11/23 12:24:08;;;;;;;5.83;2.40;;;15.90;50.80;;;;;;5110428;27;20538;-87
2022/11/23 12:26:46;;;;;;;2.10;1.90;;;15.50;49.70;;;;;;5109973;27;20468;-86
2022/11/23 12:29:34;;;;;;;3.40;1.50;;;15.50;48.80;;;;;;5111317;27;20492;-85
2022/11/23 12:32:09;;;;;;;2.90;2.20;;;15.50;50.00;;;;;;5112399;27;20443;-87
2022/11/23 12:34:58;;;;;;;1.93;1.27;;;15.30;49.20;;;;;;5109872;27;20452;-87
2022/11/23 12:37:39;;;;;;;2.43;1.53;;;14.80;49.10;;;;;;5113635;27;20862;-86
2022/11/23 12:40:33;;;;;;;4.90;1.67;;;14.50;50.00;;;;;;5111000;27;20440;-85
2022/11/23 12:43:08;;;;;;;4.60;2.20;;;14.80;50.60;;;;;;5109243;27;20611;-88
2022/11/23 12:45:50;;;;;;;4.07;1.50;;;15.10;49.70;;;;;;5090171;27;20515;-86
2022/11/23 12:48:27;;;;;;;2.73;1.63;;;14.90;50.20;;;;;;5111314;27;20466;-86
2022/11/23 12:51:05;;;;;;;5.27;1.77;;;14.70;49.30;;;;;;5110668;27;20446;-88
2022/11/23 12:53:43;;;;;;;3.30;2.23;;;15.00;49.70;;;;;;5109180;27;20534;-87
2022/11/23 12:56:23;;;;;;;3.47;1.50;;;15.30;47.80;;;;;;5106902;27;20438;-85
2022/11/23 12:58:53;;;;;;;6.43;1.57;;;15.50;48.20;;;;;;5108561;27;20461;-87
2022/11/23 13:01:25;;;;;;;3.63;1.30;;;15.50;48.30;;;;;;5106346;27;20454;-86
2022/11/23 13:04:19;;;;;;;6.57;1.60;;;15.60;48.50;;;;;;5107462;27;20445;-87